sensor_id;sensor_type;location;lat;lon;timestamp;temperature;humidity
15450;DHT22;7826;49.784;9.934;2022-10-28T00:00:54;12.40;99.90
15450;DHT22;7826;49.784;9.934;2022-10-28T00:03:21;12.30;99.90
15450;DHT22;7826;49.784;9.934;2022-10-28T00:05:48;12.30;99.90
15450;DHT22;7826;49.784;9.934;2022-10-28T00:08:14;12.30;99.90
15450;DHT22;7826;49.784;9.934;2022-10-28T00:10:40;12.20;99.90
15450;DHT22;7826;49.784;9.934;2022-10-28T00:13:07;12.20;99.90
15450;DHT22;7826;49.784;9.934;2022-10-28T00:15:33;12.20;99.90
15450;DHT22;7826;49.784;9.934;2022-10-28T00:18:00;12.20;99.90
15450;DHT22;7826;49.784;9.934;2022-10-28T00:20:29;12.20;99.90
15450;DHT22;7826;49.784;9.934;2022-10-28T00:22:55;12.20;99.90
15450;DHT22;7826;49.784;9.934;2022-10-28T00:25:22;12.10;99.90
15450;DHT22;7826;49.784;9.934;2022-10-28T00:27:50;12.10;99.90
15450;DHT22;7826;49.784;9.934;2022-10-28T00:30:17;12.10;99.90
15450;DHT22;7826;49.784;9.934;2022-10-28T00:32:43;12.10;99.90
15450;DHT22;7826;49.784;9.934;2022-10-28T00:35:10;12.00;99.90
15450;DHT22;7826;49.784;9.934;2022-10-28T00:37:36;12.00;99.90
15450;DHT22;7826;49.784;9.934;2022-10-28T00:40:03;12.00;99.90
15450;DHT22;7826;49.784;9.934;2022-10-28T00:42:30;12.00;99.90
15450;DHT22;7826;49.784;9.934;2022-10-28T00:45:01;12.00;99.90
15450;DHT22;7826;49.784;9.934;2022-10-28T00:50:46;11.90;99.90
15450;DHT22;7826;49.784;9.934;2022-10-28T00:53:18;11.90;99.90
15450;DHT22;7826;49.784;9.934;2022-10-28T00:55:46;11.90;99.90
15450;DHT22;7826;49.784;9.934;2022-10-28T00:58:14;11.80;99.90
15450;DHT22;7826;49.784;9.934;2022-10-28T01:00:41;11.80;99.90
15450;DHT22;7826;49.784;9.934;2022-10-28T01:03:07;11.80;99.90
15450;DHT22;7826;49.784;9.934;2022-10-28T01:05:37;11.80;99.90
15450;DHT22;7826;49.784;9.934;2022-10-28T01:08:06;11.70;99.90
15450;DHT22;7826;49.784;9.934;2022-10-28T01:16:17;11.70;99.90
15450;DHT22;7826;49.784;9.934;2022-10-28T01:19:11;11.70;99.90
15450;DHT22;7826;49.784;9.934;2022-10-28T01:30:22;11.60;99.90
15450;DHT22;7826;49.784;9.934;2022-10-28T01:35:50;11.50;99.90
15450;DHT22;7826;49.784;9.934;2022-10-28T01:44:12;11.40;99.90
15450;DHT22;7826;49.784;9.934;2022-10-28T01:46:48;11.40;99.90
15450;DHT22;7826;49.784;9.934;2022-10-28T01:49:37;11.40;99.90
15450;DHT22;7826;49.784;9.934;2022-10-28T01:52:09;11.40;99.90
15450;DHT22;7826;49.784;9.934;2022-10-28T01:54:37;11.40;99.90
15450;DHT22;7826;49.784;9.934;2022-10-28T01:57:05;11.40;99.90
15450;DHT22;7826;49.784;9.934;2022-10-28T01:59:33;11.30;99.90
15450;DHT22;7826;49.784;9.934;2022-10-28T02:02:00;11.30;99.90
15450;DHT22;7826;49.784;9.934;2022-10-28T02:04:26;11.30;99.90
15450;DHT22;7826;49.784;9.934;2022-10-28T02:06:55;11.20;99.90
15450;DHT22;7826;49.784;9.934;2022-10-28T02:16:57;11.20;99.90
15450;DHT22;7826;49.784;9.934;2022-10-28T02:19:37;11.10;99.90
15450;DHT22;7826;49.784;9.934;2022-10-28T02:22:25;11.10;99.90
15450;DHT22;7826;49.784;9.934;2022-10-28T02:27:41;11.10;99.90
15450;DHT22;7826;49.784;9.934;2022-10-28T02:30:17;11.00;99.90
15450;DHT22;7826;49.784;9.934;2022-10-28T02:32:50;11.00;99.90
15450;DHT22;7826;49.784;9.934;2022-10-28T02:38:06;11.00;99.90
15450;DHT22;7826;49.784;9.934;2022-10-28T02:40:36;11.00;99.90
15450;DHT22;7826;49.784;9.934;2022-10-28T02:43:06;11.00;99.90
15450;DHT22;7826;49.784;9.934;2022-10-28T02:45:41;11.00;99.90
15450;DHT22;7826;49.784;9.934;2022-10-28T02:48:15;11.00;99.90
15450;DHT22;7826;49.784;9.934;2022-10-28T02:50:55;11.00;99.90
15450;DHT22;7826;49.784;9.934;2022-10-28T02:53:29;11.00;99.90
15450;DHT22;7826;49.784;9.934;2022-10-28T02:55:59;11.00;99.90
15450;DHT22;7826;49.784;9.934;2022-10-28T02:58:26;11.00;99.90
15450;DHT22;7826;49.784;9.934;2022-10-28T03:00:53;11.10;99.90
15450;DHT22;7826;49.784;9.934;2022-10-28T03:03:19;11.10;99.90
15450;DHT22;7826;49.784;9.934;2022-10-28T03:05:45;11.10;99.90
15450;DHT22;7826;49.784;9.934;2022-10-28T03:08:12;11.10;99.90
15450;DHT22;7826;49.784;9.934;2022-10-28T03:10:38;11.10;99.90
15450;DHT22;7826;49.784;9.934;2022-10-28T03:13:05;11.10;99.90
15450;DHT22;7826;49.784;9.934;2022-10-28T03:15:31;11.10;99.90
15450;DHT22;7826;49.784;9.934;2022-10-28T03:17:57;11.10;99.90
15450;DHT22;7826;49.784;9.934;2022-10-28T03:20:24;11.10;99.90
15450;DHT22;7826;49.784;9.934;2022-10-28T03:22:50;11.10;99.90
15450;DHT22;7826;49.784;9.934;2022-10-28T03:25:16;11.20;99.90
15450;DHT22;7826;49.784;9.934;2022-10-28T03:27:43;11.20;99.90
15450;DHT22;7826;49.784;9.934;2022-10-28T03:30:09;11.20;99.90
15450;DHT22;7826;49.784;9.934;2022-10-28T03:32:36;11.20;99.90
15450;DHT22;7826;49.784;9.934;2022-10-28T03:35:03;11.20;99.90
15450;DHT22;7826;49.784;9.934;2022-10-28T03:37:30;11.30;99.90
15450;DHT22;7826;49.784;9.934;2022-10-28T03:39:56;11.30;99.90
15450;DHT22;7826;49.784;9.934;2022-10-28T03:42:22;11.20;99.90
15450;DHT22;7826;49.784;9.934;2022-10-28T03:44:48;11.20;99.90
15450;DHT22;7826;49.784;9.934;2022-10-28T03:47:15;11.20;99.90
15450;DHT22;7826;49.784;9.934;2022-10-28T03:49:41;11.20;99.90
15450;DHT22;7826;49.784;9.934;2022-10-28T03:52:07;11.20;99.90
15450;DHT22;7826;49.784;9.934;2022-10-28T03:54:34;11.20;99.90
15450;DHT22;7826;49.784;9.934;2022-10-28T03:57:00;11.30;99.90
15450;DHT22;7826;49.784;9.934;2022-10-28T03:59:26;11.30;99.90
15450;DHT22;7826;49.784;9.934;2022-10-28T04:01:53;11.30;99.90
15450;DHT22;7826;49.784;9.934;2022-10-28T04:04:19;11.30;99.90
15450;DHT22;7826;49.784;9.934;2022-10-28T04:06:46;11.30;99.90
15450;DHT22;7826;49.784;9.934;2022-10-28T04:09:12;11.30;99.90
15450;DHT22;7826;49.784;9.934;2022-10-28T04:11:38;11.30;99.90
15450;DHT22;7826;49.784;9.934;2022-10-28T04:14:04;11.30;99.90
15450;DHT22;7826;49.784;9.934;2022-10-28T04:16:31;11.30;99.90
15450;DHT22;7826;49.784;9.934;2022-10-28T04:18:57;11.30;99.90
15450;DHT22;7826;49.784;9.934;2022-10-28T04:21:24;11.30;99.90
15450;DHT22;7826;49.784;9.934;2022-10-28T04:23:50;11.40;99.90
15450;DHT22;7826;49.784;9.934;2022-10-28T04:26:16;11.40;99.90
15450;DHT22;7826;49.784;9.934;2022-10-28T04:28:43;11.40;99.90
15450;DHT22;7826;49.784;9.934;2022-10-28T04:31:09;11.40;99.90
15450;DHT22;7826;49.784;9.934;2022-10-28T04:33:40;11.40;99.90
15450;DHT22;7826;49.784;9.934;2022-10-28T04:36:07;11.50;99.90
15450;DHT22;7826;49.784;9.934;2022-10-28T04:38:34;11.20;99.90
15450;DHT22;7826;49.784;9.934;2022-10-28T04:41:00;11.60;99.90
15450;DHT22;7826;49.784;9.934;2022-10-28T04:43:27;11.70;99.90
15450;DHT22;7826;49.784;9.934;2022-10-28T04:45:53;11.60;99.90
15450;DHT22;7826;49.784;9.934;2022-10-28T04:48:20;11.60;99.90
15450;DHT22;7826;49.784;9.934;2022-10-28T04:50:47;11.60;99.90
15450;DHT22;7826;49.784;9.934;2022-10-28T04:53:13;11.60;99.90
15450;DHT22;7826;49.784;9.934;2022-10-28T04:55:40;11.60;99.90
15450;DHT22;7826;49.784;9.934;2022-10-28T04:58:08;11.60;99.90
15450;DHT22;7826;49.784;9.934;2022-10-28T05:00:35;11.60;99.90
15450;DHT22;7826;49.784;9.934;2022-10-28T05:03:01;11.60;99.90
15450;DHT22;7826;49.784;9.934;2022-10-28T05:05:28;11.60;99.90
15450;DHT22;7826;49.784;9.934;2022-10-28T05:07:55;11.60;99.90
15450;DHT22;7826;49.784;9.934;2022-10-28T05:10:21;11.60;99.90
15450;DHT22;7826;49.784;9.934;2022-10-28T05:12:47;11.60;99.90
15450;DHT22;7826;49.784;9.934;2022-10-28T05:15:14;11.60;99.90
15450;DHT22;7826;49.784;9.934;2022-10-28T05:17:45;11.60;99.90
15450;DHT22;7826;49.784;9.934;2022-10-28T05:20:13;11.60;99.90
15450;DHT22;7826;49.784;9.934;2022-10-28T05:22:47;11.70;99.90
15450;DHT22;7826;49.784;9.934;2022-10-28T05:25:13;11.70;99.90
15450;DHT22;7826;49.784;9.934;2022-10-28T05:27:40;11.70;99.90
15450;DHT22;7826;49.784;9.934;2022-10-28T05:30:07;11.70;99.90
15450;DHT22;7826;49.784;9.934;2022-10-28T05:32:34;11.60;99.90
15450;DHT22;7826;49.784;9.934;2022-10-28T05:35:01;11.60;99.90
15450;DHT22;7826;49.784;9.934;2022-10-28T05:37:27;11.70;99.90
15450;DHT22;7826;49.784;9.934;2022-10-28T05:39:53;11.70;99.90
15450;DHT22;7826;49.784;9.934;2022-10-28T05:42:20;11.70;99.90
15450;DHT22;7826;49.784;9.934;2022-10-28T05:44:46;11.70;99.90
15450;DHT22;7826;49.784;9.934;2022-10-28T05:47:13;11.70;99.90
15450;DHT22;7826;49.784;9.934;2022-10-28T05:49:39;11.70;99.90
15450;DHT22;7826;49.784;9.934;2022-10-28T05:52:06;11.70;99.90
15450;DHT22;7826;49.784;9.934;2022-10-28T05:54:32;11.70;99.90
15450;DHT22;7826;49.784;9.934;2022-10-28T05:56:59;11.70;99.90
15450;DHT22;7826;49.784;9.934;2022-10-28T05:59:26;11.70;99.90
15450;DHT22;7826;49.784;9.934;2022-10-28T06:01:56;11.70;99.90
15450;DHT22;7826;49.784;9.934;2022-10-28T06:04:23;11.70;99.90
15450;DHT22;7826;49.784;9.934;2022-10-28T06:06:49;11.70;99.90
15450;DHT22;7826;49.784;9.934;2022-10-28T06:09:19;11.70;99.90
15450;DHT22;7826;49.784;9.934;2022-10-28T06:11:45;11.70;99.90
15450;DHT22;7826;49.784;9.934;2022-10-28T06:14:11;11.60;99.90
15450;DHT22;7826;49.784;9.934;2022-10-28T06:16:38;11.60;99.90
15450;DHT22;7826;49.784;9.934;2022-10-28T06:19:04;11.60;99.90
15450;DHT22;7826;49.784;9.934;2022-10-28T06:21:31;11.60;99.90
15450;DHT22;7826;49.784;9.934;2022-10-28T06:23:57;11.60;99.90
15450;DHT22;7826;49.784;9.934;2022-10-28T06:26:23;11.70;99.90
15450;DHT22;7826;49.784;9.934;2022-10-28T06:28:50;11.70;99.90
15450;DHT22;7826;49.784;9.934;2022-10-28T06:31:16;11.70;99.90
15450;DHT22;7826;49.784;9.934;2022-10-28T06:33:43;11.80;99.90
15450;DHT22;7826;49.784;9.934;2022-10-28T06:36:09;11.90;99.90
15450;DHT22;7826;49.784;9.934;2022-10-28T06:38:36;11.90;99.90
15450;DHT22;7826;49.784;9.934;2022-10-28T06:41:03;12.00;99.90
15450;DHT22;7826;49.784;9.934;2022-10-28T06:43:29;12.10;99.90
15450;DHT22;7826;49.784;9.934;2022-10-28T06:46:00;12.10;99.90
15450;DHT22;7826;49.784;9.934;2022-10-28T06:48:27;12.20;99.90
15450;DHT22;7826;49.784;9.934;2022-10-28T06:50:55;12.20;99.90
15450;DHT22;7826;49.784;9.934;2022-10-28T06:53:23;12.20;99.90
15450;DHT22;7826;49.784;9.934;2022-10-28T06:55:55;12.30;99.90
15450;DHT22;7826;49.784;9.934;2022-10-28T06:58:22;12.30;99.90
15450;DHT22;7826;49.784;9.934;2022-10-28T07:00:49;12.40;99.90
15450;DHT22;7826;49.784;9.934;2022-10-28T07:03:16;12.50;99.90
15450;DHT22;7826;49.784;9.934;2022-10-28T07:05:45;12.50;99.90
15450;DHT22;7826;49.784;9.934;2022-10-28T07:08:12;12.60;99.90
15450;DHT22;7826;49.784;9.934;2022-10-28T07:10:40;12.60;99.90
15450;DHT22;7826;49.784;9.934;2022-10-28T07:13:08;12.60;99.90
15450;DHT22;7826;49.784;9.934;2022-10-28T07:15:36;12.50;99.90
15450;DHT22;7826;49.784;9.934;2022-10-28T07:18:02;12.50;99.90
15450;DHT22;7826;49.784;9.934;2022-10-28T07:20:29;12.60;99.90
15450;DHT22;7826;49.784;9.934;2022-10-28T07:23:01;12.60;99.90
15450;DHT22;7826;49.784;9.934;2022-10-28T07:25:29;12.70;99.90
15450;DHT22;7826;49.784;9.934;2022-10-28T07:27:57;12.70;99.90
15450;DHT22;7826;49.784;9.934;2022-10-28T07:30:24;12.80;99.90
15450;DHT22;7826;49.784;9.934;2022-10-28T07:32:51;12.90;99.90
15450;DHT22;7826;49.784;9.934;2022-10-28T07:35:18;13.00;99.90
15450;DHT22;7826;49.784;9.934;2022-10-28T07:37:46;13.10;99.90
15450;DHT22;7826;49.784;9.934;2022-10-28T07:40:13;13.10;99.90
15450;DHT22;7826;49.784;9.934;2022-10-28T07:42:44;13.10;99.90
15450;DHT22;7826;49.784;9.934;2022-10-28T07:45:11;13.10;99.90
15450;DHT22;7826;49.784;9.934;2022-10-28T07:47:38;13.00;99.90
15450;DHT22;7826;49.784;9.934;2022-10-28T07:50:06;13.00;99.90
15450;DHT22;7826;49.784;9.934;2022-10-28T07:52:33;13.20;99.90
15450;DHT22;7826;49.784;9.934;2022-10-28T07:55:01;13.50;99.90
15450;DHT22;7826;49.784;9.934;2022-10-28T07:57:28;13.90;99.90
15450;DHT22;7826;49.784;9.934;2022-10-28T07:59:55;14.40;99.90
15450;DHT22;7826;49.784;9.934;2022-10-28T08:02:23;14.70;99.90
15450;DHT22;7826;49.784;9.934;2022-10-28T08:04:50;15.00;99.90
15450;DHT22;7826;49.784;9.934;2022-10-28T08:07:18;15.20;99.90
15450;DHT22;7826;49.784;9.934;2022-10-28T08:09:45;15.50;99.90
15450;DHT22;7826;49.784;9.934;2022-10-28T08:12:13;15.80;99.90
15450;DHT22;7826;49.784;9.934;2022-10-28T08:14:40;15.70;99.90
15450;DHT22;7826;49.784;9.934;2022-10-28T08:17:09;15.60;99.90
15450;DHT22;7826;49.784;9.934;2022-10-28T08:19:38;15.50;99.90
15450;DHT22;7826;49.784;9.934;2022-10-28T08:22:06;15.40;99.90
15450;DHT22;7826;49.784;9.934;2022-10-28T08:24:33;15.30;99.90
15450;DHT22;7826;49.784;9.934;2022-10-28T08:27:00;15.30;99.90
15450;DHT22;7826;49.784;9.934;2022-10-28T08:29:27;15.30;99.90
15450;DHT22;7826;49.784;9.934;2022-10-28T08:31:54;15.30;99.90
15450;DHT22;7826;49.784;9.934;2022-10-28T08:34:20;15.30;99.90
15450;DHT22;7826;49.784;9.934;2022-10-28T08:36:47;15.70;99.90
15450;DHT22;7826;49.784;9.934;2022-10-28T08:39:14;16.20;99.90
15450;DHT22;7826;49.784;9.934;2022-10-28T08:49:55;17.30;99.90
15450;DHT22;7826;49.784;9.934;2022-10-28T08:52:43;17.00;99.90
15450;DHT22;7826;49.784;9.934;2022-10-28T08:58:19;16.40;99.90
15450;DHT22;7826;49.784;9.934;2022-10-28T09:00:53;16.20;99.90
15450;DHT22;7826;49.784;9.934;2022-10-28T09:03:24;16.10;99.90
15450;DHT22;7826;49.784;9.934;2022-10-28T09:06:03;16.10;99.90
15450;DHT22;7826;49.784;9.934;2022-10-28T09:08:34;16.10;99.90
15450;DHT22;7826;49.784;9.934;2022-10-28T09:16:49;16.10;99.90
15450;DHT22;7826;49.784;9.934;2022-10-28T09:21:56;16.10;99.90
15450;DHT22;7826;49.784;9.934;2022-10-28T09:27:22;16.20;99.90
15450;DHT22;7826;49.784;9.934;2022-10-28T09:30:21;16.20;99.90
15450;DHT22;7826;49.784;9.934;2022-10-28T09:35:24;16.20;99.90
15450;DHT22;7826;49.784;9.934;2022-10-28T09:37:56;16.30;99.90
15450;DHT22;7826;49.784;9.934;2022-10-28T09:40:27;16.50;99.90
15450;DHT22;7826;49.784;9.934;2022-10-28T09:45:44;16.70;99.90
15450;DHT22;7826;49.784;9.934;2022-10-28T09:48:25;16.70;99.90
15450;DHT22;7826;49.784;9.934;2022-10-28T09:50:54;16.60;99.90
15450;DHT22;7826;49.784;9.934;2022-10-28T09:53:41;16.70;99.90
15450;DHT22;7826;49.784;9.934;2022-10-28T09:56:09;16.90;99.90
15450;DHT22;7826;49.784;9.934;2022-10-28T09:58:38;17.00;99.90
15450;DHT22;7826;49.784;9.934;2022-10-28T10:01:05;17.00;99.90
15450;DHT22;7826;49.784;9.934;2022-10-28T10:03:32;17.10;99.90
15450;DHT22;7826;49.784;9.934;2022-10-28T10:06:12;17.20;99.90
15450;DHT22;7826;49.784;9.934;2022-10-28T10:08:40;17.20;99.90
15450;DHT22;7826;49.784;9.934;2022-10-28T10:11:45;17.30;99.90
15450;DHT22;7826;49.784;9.934;2022-10-28T10:14:24;17.40;99.90
15450;DHT22;7826;49.784;9.934;2022-10-28T10:19:24;17.70;99.90
15450;DHT22;7826;49.784;9.934;2022-10-28T10:21:52;17.80;99.90
15450;DHT22;7826;49.784;9.934;2022-10-28T10:24:29;17.90;99.90
15450;DHT22;7826;49.784;9.934;2022-10-28T10:29:27;18.20;99.90
15450;DHT22;7826;49.784;9.934;2022-10-28T10:32:18;18.40;99.90
15450;DHT22;7826;49.784;9.934;2022-10-28T10:35:01;18.50;99.90
15450;DHT22;7826;49.784;9.934;2022-10-28T10:37:32;18.60;99.90
15450;DHT22;7826;49.784;9.934;2022-10-28T10:40:24;18.60;99.90
15450;DHT22;7826;49.784;9.934;2022-10-28T10:42:52;18.70;99.90
15450;DHT22;7826;49.784;9.934;2022-10-28T10:45:24;18.80;99.90
15450;DHT22;7826;49.784;9.934;2022-10-28T10:48:20;18.70;99.90
15450;DHT22;7826;49.784;9.934;2022-10-28T10:50:48;18.70;99.90
15450;DHT22;7826;49.784;9.934;2022-10-28T10:55:51;18.90;99.90
15450;DHT22;7826;49.784;9.934;2022-10-28T10:58:21;18.90;99.90
15450;DHT22;7826;49.784;9.934;2022-10-28T11:00:54;18.90;99.90
15450;DHT22;7826;49.784;9.934;2022-10-28T11:03:30;19.00;99.90
15450;DHT22;7826;49.784;9.934;2022-10-28T11:05:58;19.00;99.90
15450;DHT22;7826;49.784;9.934;2022-10-28T11:11:13;19.20;99.90
15450;DHT22;7826;49.784;9.934;2022-10-28T11:13:40;19.20;99.90
15450;DHT22;7826;49.784;9.934;2022-10-28T11:16:22;19.30;99.90
15450;DHT22;7826;49.784;9.934;2022-10-28T11:18:51;19.30;99.90
15450;DHT22;7826;49.784;9.934;2022-10-28T11:25:02;19.30;99.90
15450;DHT22;7826;49.784;9.934;2022-10-28T11:30:00;19.50;99.90
15450;DHT22;7826;49.784;9.934;2022-10-28T11:32:40;19.60;99.90
15450;DHT22;7826;49.784;9.934;2022-10-28T11:38:00;19.80;99.90
15450;DHT22;7826;49.784;9.934;2022-10-28T11:51:01;20.00;99.90
15450;DHT22;7826;49.784;9.934;2022-10-28T11:56:44;20.10;99.90
15450;DHT22;7826;49.784;9.934;2022-10-28T12:07:34;20.00;99.90
15450;DHT22;7826;49.784;9.934;2022-10-28T12:18:34;20.20;99.90
15450;DHT22;7826;49.784;9.934;2022-10-28T12:23:41;20.20;99.90
15450;DHT22;7826;49.784;9.934;2022-10-28T12:26:12;20.20;99.90
15450;DHT22;7826;49.784;9.934;2022-10-28T12:28:43;20.30;99.90
15450;DHT22;7826;49.784;9.934;2022-10-28T12:31:24;20.30;99.90
15450;DHT22;7826;49.784;9.934;2022-10-28T12:33:56;20.30;99.90
15450;DHT22;7826;49.784;9.934;2022-10-28T12:39:23;20.50;99.90
15450;DHT22;7826;49.784;9.934;2022-10-28T12:44:29;20.70;99.90
15450;DHT22;7826;49.784;9.934;2022-10-28T12:47:32;20.80;99.90
15450;DHT22;7826;49.784;9.934;2022-10-28T12:55:40;21.00;99.90
15450;DHT22;7826;49.784;9.934;2022-10-28T12:58:14;21.10;99.90
15450;DHT22;7826;49.784;9.934;2022-10-28T13:00:49;21.10;99.90
15450;DHT22;7826;49.784;9.934;2022-10-28T13:03:16;21.10;99.90
15450;DHT22;7826;49.784;9.934;2022-10-28T13:26:14;21.70;99.90
15450;DHT22;7826;49.784;9.934;2022-10-28T13:28:49;21.70;99.90
15450;DHT22;7826;49.784;9.934;2022-10-28T13:31:16;21.80;99.90
15450;DHT22;7826;49.784;9.934;2022-10-28T13:33:56;21.80;99.90
15450;DHT22;7826;49.784;9.934;2022-10-28T13:36:25;21.90;99.90
15450;DHT22;7826;49.784;9.934;2022-10-28T13:39:04;21.90;99.90
15450;DHT22;7826;49.784;9.934;2022-10-28T13:41:36;21.90;99.90
15450;DHT22;7826;49.784;9.934;2022-10-28T13:52:28;21.90;99.90
15450;DHT22;7826;49.784;9.934;2022-10-28T13:54:56;21.90;99.90
15450;DHT22;7826;49.784;9.934;2022-10-28T13:57:37;21.90;99.90
15450;DHT22;7826;49.784;9.934;2022-10-28T14:02:45;21.90;99.90
15450;DHT22;7826;49.784;9.934;2022-10-28T14:05:14;21.90;99.90
15450;DHT22;7826;49.784;9.934;2022-10-28T14:08:07;21.90;99.90
15450;DHT22;7826;49.784;9.934;2022-10-28T14:10:37;21.90;99.90
15450;DHT22;7826;49.784;9.934;2022-10-28T14:13:19;21.80;99.90
15450;DHT22;7826;49.784;9.934;2022-10-28T14:15:46;21.70;99.90
15450;DHT22;7826;49.784;9.934;2022-10-28T14:44:40;21.00;99.90
15450;DHT22;7826;49.784;9.934;2022-10-28T14:50:00;20.90;99.90
15450;DHT22;7826;49.784;9.934;2022-10-28T14:52:29;20.80;99.90
15450;DHT22;7826;49.784;9.934;2022-10-28T14:54:58;20.80;99.90
15450;DHT22;7826;49.784;9.934;2022-10-28T14:57:29;20.70;99.90
15450;DHT22;7826;49.784;9.934;2022-10-28T14:59:56;20.70;99.90
15450;DHT22;7826;49.784;9.934;2022-10-28T15:02:28;20.70;99.90
15450;DHT22;7826;49.784;9.934;2022-10-28T15:05:01;20.60;99.90
15450;DHT22;7826;49.784;9.934;2022-10-28T15:07:29;20.60;99.90
15450;DHT22;7826;49.784;9.934;2022-10-28T15:09:56;20.50;99.90
15450;DHT22;7826;49.784;9.934;2022-10-28T15:12:24;20.50;99.90
15450;DHT22;7826;49.784;9.934;2022-10-28T15:14:53;20.50;99.90
15450;DHT22;7826;49.784;9.934;2022-10-28T15:17:26;20.40;99.90
15450;DHT22;7826;49.784;9.934;2022-10-28T15:19:55;20.30;99.90
15450;DHT22;7826;49.784;9.934;2022-10-28T15:22:23;20.30;99.90
15450;DHT22;7826;49.784;9.934;2022-10-28T15:24:53;20.20;99.90
15450;DHT22;7826;49.784;9.934;2022-10-28T15:27:21;20.10;99.90
15450;DHT22;7826;49.784;9.934;2022-10-28T15:29:48;20.10;99.90
15450;DHT22;7826;49.784;9.934;2022-10-28T15:34:47;20.00;99.90
15450;DHT22;7826;49.784;9.934;2022-10-28T15:37:37;19.90;99.90
15450;DHT22;7826;49.784;9.934;2022-10-28T15:40:34;19.80;99.90
15450;DHT22;7826;49.784;9.934;2022-10-28T15:43:25;19.80;99.90
15450;DHT22;7826;49.784;9.934;2022-10-28T15:45:53;19.70;99.90
15450;DHT22;7826;49.784;9.934;2022-10-28T15:48:23;19.60;99.90
15450;DHT22;7826;49.784;9.934;2022-10-28T15:51:10;19.50;99.90
15450;DHT22;7826;49.784;9.934;2022-10-28T15:53:39;19.50;99.90
15450;DHT22;7826;49.784;9.934;2022-10-28T15:58:41;19.30;99.90
15450;DHT22;7826;49.784;9.934;2022-10-28T16:01:35;19.30;99.90
15450;DHT22;7826;49.784;9.934;2022-10-28T16:06:44;18.90;99.90
15450;DHT22;7826;49.784;9.934;2022-10-28T16:09:44;18.90;99.90
15450;DHT22;7826;49.784;9.934;2022-10-28T16:12:17;18.80;99.90
15450;DHT22;7826;49.784;9.934;2022-10-28T16:14:46;18.70;99.90
15450;DHT22;7826;49.784;9.934;2022-10-28T16:17:23;18.60;99.90
15450;DHT22;7826;49.784;9.934;2022-10-28T16:20:00;18.60;99.90
15450;DHT22;7826;49.784;9.934;2022-10-28T16:22:28;18.50;99.90
15450;DHT22;7826;49.784;9.934;2022-10-28T16:24:56;18.40;99.90
15450;DHT22;7826;49.784;9.934;2022-10-28T16:27:28;18.30;99.90
15450;DHT22;7826;49.784;9.934;2022-10-28T16:29:55;18.20;99.90
15450;DHT22;7826;49.784;9.934;2022-10-28T16:32:36;18.20;99.90
15450;DHT22;7826;49.784;9.934;2022-10-28T16:35:15;18.20;99.90
15450;DHT22;7826;49.784;9.934;2022-10-28T16:37:43;18.10;99.90
15450;DHT22;7826;49.784;9.934;2022-10-28T16:40:10;18.00;99.90
15450;DHT22;7826;49.784;9.934;2022-10-28T16:42:37;18.00;99.90
15450;DHT22;7826;49.784;9.934;2022-10-28T16:45:07;18.00;99.90
15450;DHT22;7826;49.784;9.934;2022-10-28T16:47:36;17.90;99.90
15450;DHT22;7826;49.784;9.934;2022-10-28T16:50:02;17.90;99.90
15450;DHT22;7826;49.784;9.934;2022-10-28T16:52:29;17.90;99.90
15450;DHT22;7826;49.784;9.934;2022-10-28T16:54:56;17.80;99.90
15450;DHT22;7826;49.784;9.934;2022-10-28T16:57:23;17.80;99.90
15450;DHT22;7826;49.784;9.934;2022-10-28T16:59:50;17.70;99.90
15450;DHT22;7826;49.784;9.934;2022-10-28T17:02:29;17.80;99.90
15450;DHT22;7826;49.784;9.934;2022-10-28T17:04:56;17.70;99.90
15450;DHT22;7826;49.784;9.934;2022-10-28T17:07:23;17.70;99.90
15450;DHT22;7826;49.784;9.934;2022-10-28T17:09:49;17.60;99.90
15450;DHT22;7826;49.784;9.934;2022-10-28T17:12:20;17.60;99.90
15450;DHT22;7826;49.784;9.934;2022-10-28T17:14:47;17.60;99.90
15450;DHT22;7826;49.784;9.934;2022-10-28T17:17:14;17.50;99.90
15450;DHT22;7826;49.784;9.934;2022-10-28T17:19:41;17.50;99.90
15450;DHT22;7826;49.784;9.934;2022-10-28T17:22:08;17.40;99.90
15450;DHT22;7826;49.784;9.934;2022-10-28T17:24:35;17.40;99.90
15450;DHT22;7826;49.784;9.934;2022-10-28T17:27:01;17.30;99.90
15450;DHT22;7826;49.784;9.934;2022-10-28T17:29:29;17.30;99.90
15450;DHT22;7826;49.784;9.934;2022-10-28T17:31:55;17.20;99.90
15450;DHT22;7826;49.784;9.934;2022-10-28T17:34:22;17.20;99.90
15450;DHT22;7826;49.784;9.934;2022-10-28T17:36:48;17.20;99.90
15450;DHT22;7826;49.784;9.934;2022-10-28T17:39:14;17.20;99.90
15450;DHT22;7826;49.784;9.934;2022-10-28T17:41:44;17.10;99.90
15450;DHT22;7826;49.784;9.934;2022-10-28T17:44:11;17.00;99.90
15450;DHT22;7826;49.784;9.934;2022-10-28T17:46:38;17.00;99.90
15450;DHT22;7826;49.784;9.934;2022-10-28T17:49:04;16.90;99.90
15450;DHT22;7826;49.784;9.934;2022-10-28T17:51:36;16.90;99.90
15450;DHT22;7826;49.784;9.934;2022-10-28T17:54:03;16.90;99.90
15450;DHT22;7826;49.784;9.934;2022-10-28T17:56:32;16.90;99.90
15450;DHT22;7826;49.784;9.934;2022-10-28T17:58:58;16.80;99.90
15450;DHT22;7826;49.784;9.934;2022-10-28T18:01:30;16.80;99.90
15450;DHT22;7826;49.784;9.934;2022-10-28T18:03:57;16.80;99.90
15450;DHT22;7826;49.784;9.934;2022-10-28T18:06:23;16.80;99.90
15450;DHT22;7826;49.784;9.934;2022-10-28T18:08:50;16.80;99.90
15450;DHT22;7826;49.784;9.934;2022-10-28T18:11:17;16.70;99.90
15450;DHT22;7826;49.784;9.934;2022-10-28T18:13:47;16.70;99.90
15450;DHT22;7826;49.784;9.934;2022-10-28T18:16:23;16.60;99.90
15450;DHT22;7826;49.784;9.934;2022-10-28T18:18:50;16.50;99.90
15450;DHT22;7826;49.784;9.934;2022-10-28T18:21:18;16.50;99.90
15450;DHT22;7826;49.784;9.934;2022-10-28T18:23:50;16.40;99.90
15450;DHT22;7826;49.784;9.934;2022-10-28T18:26:17;16.40;99.90
15450;DHT22;7826;49.784;9.934;2022-10-28T18:28:44;16.30;99.90
15450;DHT22;7826;49.784;9.934;2022-10-28T18:31:12;16.30;99.90
15450;DHT22;7826;49.784;9.934;2022-10-28T18:33:40;16.30;99.90
15450;DHT22;7826;49.784;9.934;2022-10-28T18:36:11;16.30;99.90
15450;DHT22;7826;49.784;9.934;2022-10-28T18:38:37;16.20;99.90
15450;DHT22;7826;49.784;9.934;2022-10-28T18:41:07;16.20;99.90
15450;DHT22;7826;49.784;9.934;2022-10-28T18:43:34;16.20;99.90
15450;DHT22;7826;49.784;9.934;2022-10-28T18:46:00;16.10;99.90
15450;DHT22;7826;49.784;9.934;2022-10-28T18:48:27;16.10;99.90
15450;DHT22;7826;49.784;9.934;2022-10-28T18:50:59;16.00;99.90
15450;DHT22;7826;49.784;9.934;2022-10-28T18:53:26;16.00;99.90
15450;DHT22;7826;49.784;9.934;2022-10-28T18:55:58;16.00;99.90
15450;DHT22;7826;49.784;9.934;2022-10-28T18:58:27;16.00;99.90
15450;DHT22;7826;49.784;9.934;2022-10-28T19:01:02;16.00;99.90
15450;DHT22;7826;49.784;9.934;2022-10-28T19:03:29;15.90;99.90
15450;DHT22;7826;49.784;9.934;2022-10-28T19:06:00;15.90;99.90
15450;DHT22;7826;49.784;9.934;2022-10-28T19:08:27;15.80;99.90
15450;DHT22;7826;49.784;9.934;2022-10-28T19:10:57;15.80;99.90
15450;DHT22;7826;49.784;9.934;2022-10-28T19:13:24;15.70;99.90
15450;DHT22;7826;49.784;9.934;2022-10-28T19:15:50;15.70;99.90
15450;DHT22;7826;49.784;9.934;2022-10-28T19:18:16;15.60;99.90
15450;DHT22;7826;49.784;9.934;2022-10-28T19:20:42;15.60;99.90